Time;durP1;ratioP1;P1;durP2;ratioP2;P2;SDS_P1;SDS_P2;PMS_P1;PMS_P2;Temp;Humidity;BMP_temperature;BMP_pressure;BME280_temperature;BME280_humidity;BME280_pressure;Samples;Min_cycle;Max_cycle;Signal;HPM_P1;HPM_P2
2022/12/20 00:01:16;;;;;;;0.00;0.00;;;;;;;9.30;73.87;99098.06;7354609;19;20013;-59
2022/12/20 00:03:43;;;;;;;0.10;0.10;;;;;;;9.31;74.24;99115.38;7356512;19;20018;-59
2022/12/20 00:06:09;;;;;;;0.00;0.00;;;;;;;9.31;73.64;99120.56;7359432;19;20014;-60
2022/12/20 00:08:36;;;;;;;0.00;0.00;;;;;;;9.30;73.57;99111.91;7360815;19;20017;-59
2022/12/20 00:11:04;;;;;;;0.10;0.10;;;;;;;9.31;73.52;99110.16;7358939;19;20026;-59
2022/12/20 00:13:29;;;;;;;0.05;0.05;;;;;;;9.30;73.59;99109.31;7359101;19;20074;-59
2022/12/20 00:16:11;;;;;;;0.03;0.03;;;;;;;9.35;74.76;99106.50;7359737;19;20033;-58
2022/12/20 00:18:37;;;;;;;0.08;0.08;;;;;;;9.32;73.87;99109.25;7362049;19;20014;-59
2022/12/20 00:21:05;;;;;;;0.00;0.00;;;;;;;9.32;73.52;99106.63;7359003;19;20039;-59
2022/12/20 00:23:30;;;;;;;0.00;0.00;;;;;;;9.30;73.38;99108.47;7356760;19;20045;-59
2022/12/20 00:26:04;;;;;;;0.00;0.00;;;;;;;9.32;73.74;99097.06;7360191;19;20723;-60
2022/12/20 00:28:30;;;;;;;0.10;0.10;;;;;;;9.31;73.33;99105.78;7360254;19;20805;-59
2022/12/20 00:30:55;;;;;;;0.10;0.10;;;;;;;9.30;74.01;99103.25;7363038;19;20022;-59
2022/12/20 00:33:21;;;;;;;0.10;0.10;;;;;;;9.30;73.83;99098.06;7360058;19;20709;-59
2022/12/20 00:35:46;;;;;;;0.00;0.00;;;;;;;9.29;73.51;99102.41;7365435;19;20031;-59
2022/12/20 00:38:12;;;;;;;0.00;0.00;;;;;;;9.31;73.66;99105.78;7360205;19;20046;-59
2022/12/20 00:40:37;;;;;;;0.00;0.00;;;;;;;9.35;74.13;99101.31;7364225;19;20018;-60
2022/12/20 00:43:03;;;;;;;0.00;0.00;;;;;;;9.38;74.35;99098.56;7357941;19;20018;-60
2022/12/20 00:45:28;;;;;;;0.10;0.10;;;;;;;9.39;74.29;99097.66;7362635;19;20006;-59
2022/12/20 00:47:54;;;;;;;0.00;0.00;;;;;;;9.48;74.34;99106.81;7360287;19;20010;-59
2022/12/20 00:50:19;;;;;;;0.10;0.10;;;;;;;9.53;75.04;99103.13;7364291;19;20069;-59
2022/12/20 00:52:44;;;;;;;0.00;0.00;;;;;;;9.56;74.22;99095.16;7361572;19;20030;-59
2022/12/20 00:55:10;;;;;;;0.10;0.10;;;;;;;9.57;73.80;99083.81;7358374;19;20038;-60
2022/12/20 00:57:35;;;;;;;0.00;0.00;;;;;;;9.66;74.08;99095.59;7359664;19;20014;-60
2022/12/20 01:00:00;;;;;;;0.00;0.00;;;;;;;9.70;73.87;99091.94;7362760;19;20028;-59
2022/12/20 01:02:26;;;;;;;0.00;0.00;;;;;;;9.74;73.56;99095.25;7360870;19;20030;-59
2022/12/20 01:04:51;;;;;;;0.00;0.00;;;;;;;9.79;73.67;99098.50;7363406;19;20018;-60
2022/12/20 01:07:18;;;;;;;0.03;0.03;;;;;;;9.73;74.09;99080.50;7360329;19;20033;-59
2022/12/20 01:09:43;;;;;;;0.10;0.10;;;;;;;9.54;73.78;99050.09;7362262;19;20059;-59
2022/12/20 01:12:10;;;;;;;0.00;0.00;;;;;;;9.90;73.87;99103.22;7363086;19;22517;-60
2022/12/20 01:14:35;;;;;;;0.00;0.00;;;;;;;9.93;73.18;99108.28;7360766;19;20041;-59
2022/12/20 01:17:01;;;;;;;0.00;0.00;;;;;;;9.98;73.95;99107.16;7363299;19;20015;-59
2022/12/20 01:19:26;;;;;;;0.00;0.00;;;;;;;10.02;74.03;99108.72;7363209;19;21210;-60
2022/12/20 01:21:51;;;;;;;0.00;0.00;;;;;;;10.05;73.76;99102.53;7363410;19;20006;-60
2022/12/20 01:24:19;;;;;;;0.10;0.10;;;;;;;10.08;73.66;99113.66;7359859;19;20113;-59
2022/12/20 01:26:45;;;;;;;0.00;0.00;;;;;;;10.10;73.61;99111.00;7361625;19;20026;-59
2022/12/20 01:29:11;;;;;;;0.10;0.10;;;;;;;10.11;73.61;99113.50;7360892;19;20017;-60
2022/12/20 01:31:36;;;;;;;0.00;0.00;;;;;;;10.12;72.73;99109.97;7360332;19;20015;-59
2022/12/20 01:34:02;;;;;;;0.00;0.00;;;;;;;10.13;72.78;99110.81;7362235;19;20010;-60
2022/12/20 01:36:31;;;;;;;0.00;0.00;;;;;;;10.17;72.82;99108.94;7361886;19;20018;-59
2022/12/20 01:39:02;;;;;;;0.10;0.10;;;;;;;10.17;72.24;99109.78;7359313;19;20015;-60
2022/12/20 01:41:29;;;;;;;0.00;0.00;;;;;;;10.16;72.59;99115.06;7362422;19;20011;-60
2022/12/20 01:43:54;;;;;;;0.00;0.00;;;;;;;10.18;72.57;99113.22;7359061;19;20029;-59
2022/12/20 01:46:23;;;;;;;0.10;0.10;;;;;;;10.17;72.12;99111.53;7361700;19;20011;-60
2022/12/20 01:48:55;;;;;;;0.00;0.00;;;;;;;10.17;72.08;99106.31;7360701;19;20457;-59
2022/12/20 01:51:22;;;;;;;0.00;0.00;;;;;;;10.14;72.44;99107.31;7362923;19;20023;-60
2022/12/20 01:53:55;;;;;;;0.00;0.00;;;;;;;10.08;72.75;99103.22;7362024;19;20781;-60
2022/12/20 01:56:20;;;;;;;0.00;0.00;;;;;;;9.95;72.39;99083.84;7356783;19;20011;-59
2022/12/20 01:58:49;;;;;;;0.00;0.00;;;;;;;10.10;73.27;99109.22;7361415;19;20025;-60
2022/12/20 02:01:15;;;;;;;0.00;0.00;;;;;;;10.06;72.63;99110.28;7357397;19;20009;-59
2022/12/20 02:03:42;;;;;;;0.00;0.00;;;;;;;10.03;72.20;99099.97;7359595;19;20022;-60
2022/12/20 02:06:17;;;;;;;0.00;0.00;;;;;;;10.04;73.24;99104.28;7359743;19;20011;-60
2022/12/20 02:08:45;;;;;;;0.00;0.00;;;;;;;9.99;72.29;99108.88;7360796;19;20426;-59
2022/12/20 02:11:43;;;;;;;0.00;0.00;;;;;;;9.98;73.08;99101.94;7366255;19;20717;-60
2022/12/20 02:14:32;;;;;;;0.00;0.00;;;;;;;9.97;73.12;99102.88;7263162;19;2004615;-59
2022/12/20 02:17:32;;;;;;;0.10;0.10;;;;;;;9.94;72.64;99097.81;7265552;19;2004580;-60
2022/12/20 02:20:30;;;;;;;0.00;0.00;;;;;;;9.91;73.15;99116.19;7266953;19;2004575;-60
2022/12/20 02:23:22;;;;;;;;;;;;;;;9.91;73.28;99116.19;7262157;19;2004527;-60
2022/12/20 02:25:57;;;;;;;0.00;0.00;;;;;;;9.86;72.36;99107.72;7263603;19;2004457;-60
2022/12/20 02:28:50;;;;;;;0.00;0.00;;;;;;;9.84;72.89;99115.63;7366531;19;20121;-59
2022/12/20 02:31:19;;;;;;;0.00;0.00;;;;;;;9.77;72.53;99114.19;7265907;19;2004512;-59
2022/12/20 02:33:47;;;;;;;0.05;0.05;;;;;;;9.74;72.68;99116.13;7365709;19;20010;-59
2022/12/20 02:36:15;;;;;;;0.00;0.00;;;;;;;9.71;72.51;99113.63;7367560;19;20098;-60
2022/12/20 02:38:40;;;;;;;0.00;0.00;;;;;;;9.67;72.29;99114.69;7360812;19;20047;-60
2022/12/20 02:41:15;;;;;;;0.00;0.00;;;;;;;9.68;72.71;99116.34;7368423;19;20018;-60
2022/12/20 02:46:47;;;;;;;0.00;0.00;;;;;;;9.57;72.48;99122.06;7262670;19;2004292;-59
2022/12/20 02:49:17;;;;;;;0.00;0.00;;;;;;;9.62;72.57;99133.97;7364646;19;20023;-60
2022/12/20 02:51:46;;;;;;;0.00;0.00;;;;;;;9.61;73.04;99127.06;7361888;19;20015;-60
2022/12/20 02:54:12;;;;;;;0.10;0.10;;;;;;;9.56;72.76;99118.59;7367359;19;20479;-60
2022/12/20 02:56:44;;;;;;;0.10;0.10;;;;;;;9.57;72.73;99120.28;7368055;19;20014;-60
2022/12/20 02:59:44;;;;;;;0.00;0.00;;;;;;;9.54;72.85;99122.19;7354684;19;20015;-60
2022/12/20 03:02:11;;;;;;;0.00;0.00;;;;;;;9.54;72.97;99122.19;7259331;19;2004140;-60
2022/12/20 03:04:38;;;;;;;0.00;0.00;;;;;;;9.54;72.97;99127.41;7364551;19;20586;-60
2022/12/20 03:07:07;;;;;;;0.00;0.00;;;;;;;9.54;72.97;99117.84;7362867;19;20017;-60
2022/12/20 03:09:37;;;;;;;0.00;0.00;;;;;;;9.55;72.60;99122.13;7361579;19;20010;-59
2022/12/20 03:12:03;;;;;;;0.10;0.10;;;;;;;9.54;73.48;99119.59;7364823;19;20014;-60
2022/12/20 03:14:28;;;;;;;0.00;0.00;;;;;;;9.51;72.74;99120.56;7365923;19;20639;-60
2022/12/20 03:16:54;;;;;;;0.00;0.00;;;;;;;9.55;73.19;99123.88;7364342;19;20007;-59
2022/12/20 03:19:19;;;;;;;0.00;0.00;;;;;;;9.55;72.96;99123.88;7364950;19;20010;-60
2022/12/20 03:21:45;;;;;;;0.00;0.00;;;;;;;9.47;72.97;99105.13;7364324;19;20010;-60
2022/12/20 03:24:12;;;;;;;0.10;0.10;;;;;;;9.55;73.22;99114.31;7366280;19;20018;-59
2022/12/20 03:26:38;;;;;;;0.00;0.00;;;;;;;9.56;72.96;99120.38;7365809;19;20018;-60
2022/12/20 03:29:03;;;;;;;0.00;0.00;;;;;;;9.57;73.46;99117.69;7363103;19;20017;-60
2022/12/20 03:31:29;;;;;;;0.10;0.10;;;;;;;9.55;73.03;99109.09;7364313;19;20027;-59
2022/12/20 03:33:54;;;;;;;0.00;0.00;;;;;;;9.55;72.40;99108.25;7362125;19;20034;-60
2022/12/20 03:36:22;;;;;;;0.00;0.00;;;;;;;9.55;72.96;99108.25;7364404;19;20014;-60
2022/12/20 03:38:48;;;;;;;;;;;;;;;9.57;73.70;99112.47;7357646;19;20006;-60
2022/12/20 03:41:13;;;;;;;0.00;0.00;;;;;;;9.54;72.26;99123.03;7364054;19;19941;-59
2022/12/20 03:43:39;;;;;;;0.00;0.00;;;;;;;9.53;73.04;99125.69;7364422;19;20002;-60
2022/12/20 03:46:04;;;;;;;0.10;0.10;;;;;;;9.52;72.67;99134.44;7363146;19;20085;-60
2022/12/20 03:48:30;;;;;;;0.00;0.00;;;;;;;9.48;72.19;99130.25;7363600;19;20468;-60
2022/12/20 03:50:55;;;;;;;0.10;0.10;;;;;;;9.46;72.56;99122.53;7363161;19;20011;-60
2022/12/20 03:53:21;;;;;;;0.10;0.10;;;;;;;9.41;72.67;99129.69;7361451;19;20010;-60
2022/12/20 03:55:46;;;;;;;0.00;0.00;;;;;;;9.45;72.77;99130.41;7364220;19;20011;-59
2022/12/20 03:58:11;;;;;;;0.00;0.00;;;;;;;9.43;72.91;99135.69;7359043;19;20010;-60
2022/12/20 04:00:37;;;;;;;0.10;0.10;;;;;;;9.40;72.62;99124.56;7361894;19;20038;-60
2022/12/20 04:03:02;;;;;;;0.10;0.10;;;;;;;9.41;72.61;99142.72;7363106;19;20019;-59
2022/12/20 04:05:28;;;;;;;0.00;0.00;;;;;;;9.38;72.75;99137.66;7345670;19;20667;-60
2022/12/20 04:07:53;;;;;;;0.00;0.00;;;;;;;9.38;72.89;99137.66;7366370;19;20010;-59
2022/12/20 04:10:18;;;;;;;0.00;0.00;;;;;;;9.23;72.83;99114.88;7362428;19;20018;-60
2022/12/20 04:12:44;;;;;;;0.00;0.00;;;;;;;9.37;72.55;99135.94;7362560;19;20006;-59
2022/12/20 04:15:09;;;;;;;0.00;0.00;;;;;;;9.36;72.51;99144.66;7362658;19;20010;-60
2022/12/20 04:17:35;;;;;;;0.00;0.00;;;;;;;9.35;72.44;99145.59;7365746;19;20014;-59
2022/12/20 04:20:17;;;;;;;0.10;0.10;;;;;;;9.34;72.95;99156.94;7350702;19;20026;-60
2022/12/20 04:22:44;;;;;;;0.00;0.00;;;;;;;9.33;72.56;99150.03;7363047;19;20006;-60
2022/12/20 04:25:10;;;;;;;0.00;0.00;;;;;;;9.32;72.55;99149.16;7364290;19;20020;-59
2022/12/20 04:27:35;;;;;;;0.10;0.10;;;;;;;9.32;72.93;99158.72;7364347;19;20014;-60
2022/12/20 04:30:00;;;;;;;0.00;0.00;;;;;;;9.31;72.84;99162.25;7359136;19;20022;-59
2022/12/20 04:32:26;;;;;;;0.10;0.10;;;;;;;9.28;72.52;99154.59;7362048;19;20709;-60
2022/12/20 04:34:51;;;;;;;0.03;0.03;;;;;;;9.25;72.80;99144.28;7361626;19;20259;-57
2022/12/20 04:37:17;;;;;;;0.00;0.00;;;;;;;9.24;72.45;99166.88;7364583;19;20014;-59
2022/12/20 04:39:42;;;;;;;0.10;0.10;;;;;;;9.24;72.71;99160.84;7364265;19;20026;-60
2022/12/20 04:42:07;;;;;;;0.10;0.10;;;;;;;9.24;72.71;99163.44;7362843;19;20011;-59
2022/12/20 04:44:33;;;;;;;0.08;0.08;;;;;;;9.22;72.83;99157.44;7363361;19;20741;-60
2022/12/20 04:46:58;;;;;;;0.00;0.00;;;;;;;9.19;72.87;99155.81;7363977;19;20018;-59
2022/12/20 04:49:24;;;;;;;0.00;0.00;;;;;;;9.18;72.98;99166.31;7361474;19;20010;-59
2022/12/20 04:51:49;;;;;;;0.00;0.00;;;;;;;9.17;72.69;99164.59;7362764;19;20011;-60
2022/12/20 04:54:14;;;;;;;0.00;0.00;;;;;;;9.17;73.32;99169.78;7363022;19;20014;-60
2022/12/20 04:56:40;;;;;;;0.00;0.00;;;;;;;9.14;72.97;99164.72;7358374;19;20006;-59
2022/12/20 04:59:05;;;;;;;0.08;0.08;;;;;;;9.12;72.69;99174.34;7360596;19;20612;-60
2022/12/20 05:01:31;;;;;;;0.00;0.00;;;;;;;9.12;72.98;99188.22;7361002;19;20035;-60
2022/12/20 05:03:56;;;;;;;0.00;0.00;;;;;;;9.10;73.07;99174.41;7363773;19;20022;-59
2022/12/20 05:06:21;;;;;;;0.00;0.00;;;;;;;9.09;73.16;99176.19;7363087;19;21786;-59
2022/12/20 05:08:47;;;;;;;0.10;0.10;;;;;;;8.99;73.20;99174.84;7361689;19;20017;-60
2022/12/20 05:11:12;;;;;;;0.05;0.05;;;;;;;9.08;73.09;99186.66;7364349;19;20788;-60
2022/12/20 05:13:38;;;;;;;0.05;0.05;;;;;;;9.09;73.46;99181.38;7363539;19;20025;-60
2022/12/20 05:16:04;;;;;;;0.00;0.00;;;;;;;9.09;73.16;99186.59;7364079;19;20025;-59
2022/12/20 05:18:29;;;;;;;0.00;0.00;;;;;;;9.12;73.21;99176.94;7361129;19;20017;-59
2022/12/20 05:26:31;;;;;;;0.00;0.00;;;;;;;9.20;73.05;99185.31;7363901;19;20060;-59
2022/12/20 05:28:56;;;;;;;0.00;0.00;;;;;;;9.23;73.01;99204.25;7361595;19;20021;-59
2022/12/20 05:31:22;;;;;;;0.10;0.10;;;;;;;9.22;72.67;99193.88;7363368;19;20011;-60
2022/12/20 05:33:47;;;;;;;0.00;0.00;;;;;;;9.23;72.68;99191.25;7361598;19;20031;-59
2022/12/20 05:36:13;;;;;;;0.00;0.00;;;;;;;9.27;72.75;99197.16;7364620;19;20060;-58
2022/12/20 05:38:38;;;;;;;0.10;0.10;;;;;;;9.26;72.30;99200.66;7359590;19;20010;-60
2022/12/20 05:41:05;;;;;;;0.10;0.10;;;;;;;9.27;72.19;99210.19;7364304;19;20014;-60
2022/12/20 05:43:31;;;;;;;0.10;0.10;;;;;;;9.30;72.92;99202.25;7362798;19;20087;-59
2022/12/20 05:45:56;;;;;;;0.00;0.00;;;;;;;9.31;72.57;99199.56;7369464;19;20039;-60
2022/12/20 05:48:22;;;;;;;0.00;0.00;;;;;;;9.31;72.27;99198.72;7369692;19;20014;-60
2022/12/20 05:50:47;;;;;;;0.00;0.00;;;;;;;9.31;72.13;99209.16;7368924;19;20391;-60
2022/12/20 05:53:15;;;;;;;0.00;0.00;;;;;;;9.33;72.26;99212.56;7368409;19;20502;-59
2022/12/20 05:55:46;;;;;;;0.10;0.10;;;;;;;9.33;71.97;99220.38;7367286;19;20018;-58
2022/12/20 05:58:12;;;;;;;0.00;0.00;;;;;;;9.30;72.10;99207.44;7365941;19;20078;-58
2022/12/20 06:00:39;;;;;;;0.00;0.00;;;;;;;9.30;72.07;99217.88;7368895;19;20078;-60
2022/12/20 06:03:05;;;;;;;0.00;0.00;;;;;;;9.27;72.12;99203.19;7366731;19;20046;-60
2022/12/20 06:05:31;;;;;;;0.00;0.00;;;;;;;9.26;71.89;99216.31;7366015;19;20014;-59
2022/12/20 06:07:56;;;;;;;0.00;0.00;;;;;;;9.24;71.67;99221.59;7370159;19;20045;-59
2022/12/20 06:10:22;;;;;;;0.00;0.00;;;;;;;9.19;72.39;99209.66;7369642;19;20027;-59
2022/12/20 06:12:47;;;;;;;0.00;0.00;;;;;;;9.21;71.82;99228.66;7366006;19;20002;-59
2022/12/20 06:15:14;;;;;;;0.00;0.00;;;;;;;9.14;72.07;99216.81;7367487;19;20358;-59
2022/12/20 06:17:39;;;;;;;0.00;0.00;;;;;;;9.17;72.24;99227.09;7368123;19;20006;-60
2022/12/20 06:20:06;;;;;;;0.00;0.00;;;;;;;9.16;72.54;99233.22;7366882;19;20016;-59
2022/12/20 06:22:32;;;;;;;0.10;0.10;;;;;;;9.12;72.46;99226.44;7368406;19;20023;-60
2022/12/20 06:24:57;;;;;;;0.00;0.00;;;;;;;9.09;72.13;99219.59;7367962;19;20003;-59
2022/12/20 06:27:23;;;;;;;0.00;0.00;;;;;;;9.07;71.85;99227.47;7368962;19;20006;-60
2022/12/20 06:29:50;;;;;;;0.00;0.00;;;;;;;9.03;71.85;99220.69;7370433;19;20034;-60
2022/12/20 06:32:16;;;;;;;0.00;0.00;;;;;;;9.02;72.35;99219.00;7365612;19;20017;-60
2022/12/20 06:34:43;;;;;;;0.00;0.00;;;;;;;8.98;72.29;99217.44;7365858;19;20010;-60
2022/12/20 06:37:09;;;;;;;0.00;0.00;;;;;;;8.97;71.90;99222.69;7366720;19;20027;-60
2022/12/20 06:39:34;;;;;;;0.00;0.00;;;;;;;8.95;72.36;99220.13;7368589;19;21877;-60
2022/12/20 06:41:59;;;;;;;0.10;0.10;;;;;;;8.94;72.63;99225.41;7365945;19;20014;-59
2022/12/20 06:44:25;;;;;;;0.00;0.00;;;;;;;8.76;72.05;99206.16;7367085;19;20014;-60
2022/12/20 06:46:50;;;;;;;0.00;0.00;;;;;;;8.89;72.46;99228.19;7363845;19;20010;-60
2022/12/20 06:49:15;;;;;;;0.00;0.00;;;;;;;8.86;72.07;99233.50;7367566;19;20726;-60
2022/12/20 06:51:41;;;;;;;0.00;0.00;;;;;;;8.82;71.78;99243.22;7366369;19;20014;-60
2022/12/20 06:54:07;;;;;;;0.00;0.00;;;;;;;8.81;72.18;99243.25;7367314;19;20011;-60
2022/12/20 06:56:32;;;;;;;0.00;0.00;;;;;;;8.78;72.53;99240.78;7362786;19;20430;-60
2022/12/20 06:58:57;;;;;;;0.00;0.00;;;;;;;8.77;72.59;99246.91;7359455;19;20465;-60
2022/12/20 07:01:23;;;;;;;0.00;0.00;;;;;;;8.75;72.18;99248.72;7365474;19;20016;-59
2022/12/20 07:03:48;;;;;;;0.00;0.00;;;;;;;8.75;72.65;99256.50;7366485;19;20010;-59
2022/12/20 07:06:14;;;;;;;0.10;0.10;;;;;;;8.72;72.73;99246.25;7365666;19;20024;-59
2022/12/20 07:08:39;;;;;;;0.03;0.03;;;;;;;8.71;72.57;99254.94;7367174;19;20701;-60
2022/12/20 07:11:06;;;;;;;0.00;0.00;;;;;;;8.55;72.30;99232.09;7365345;19;20019;-60
2022/12/20 07:13:32;;;;;;;0.00;0.00;;;;;;;8.67;72.49;99253.34;7362260;19;20013;-59
2022/12/20 07:15:58;;;;;;;0.00;0.00;;;;;;;8.65;72.45;99260.38;7363373;19;20773;-60
2022/12/20 07:18:24;;;;;;;0.03;0.03;;;;;;;8.65;72.28;99260.38;7365547;19;20486;-59
2022/12/20 07:20:49;;;;;;;0.00;0.00;;;;;;;8.61;72.06;99264.00;7365885;19;20097;-60
2022/12/20 07:23:15;;;;;;;0.10;0.10;;;;;;;8.59;72.29;99261.47;7367952;19;20017;-59
2022/12/20 07:25:40;;;;;;;0.00;0.00;;;;;;;8.57;72.45;99261.53;7366057;19;20022;-60
2022/12/20 07:28:05;;;;;;;0.00;0.00;;;;;;;8.54;72.70;99269.44;7365553;19;20007;-59
2022/12/20 07:30:31;;;;;;;0.10;0.10;;;;;;;8.53;72.67;99267.75;7366094;19;20014;-60
2022/12/20 07:32:57;;;;;;;0.00;0.00;;;;;;;8.48;72.52;99264.47;7366176;19;20466;-60
2022/12/20 07:35:22;;;;;;;0.00;0.00;;;;;;;8.49;72.55;99279.16;7362288;19;20012;-60
2022/12/20 07:37:48;;;;;;;0.00;0.00;;;;;;;8.49;72.75;99276.56;7366206;19;20010;-59
2022/12/20 07:40:15;;;;;;;0.10;0.10;;;;;;;8.47;72.52;99275.78;7366085;19;20002;-60
2022/12/20 07:42:40;;;;;;;0.00;0.00;;;;;;;8.47;72.51;99283.59;7361546;19;20018;-60
2022/12/20 07:45:06;;;;;;;0.10;0.10;;;;;;;8.48;73.05;99284.44;7363950;19;20022;-59
2022/12/20 07:47:31;;;;;;;0.00;0.00;;;;;;;8.46;72.12;99294.88;7362575;19;20006;-59
2022/12/20 07:49:57;;;;;;;0.10;0.10;;;;;;;8.45;72.51;99290.56;7367469;19;22033;-60
2022/12/20 07:52:26;;;;;;;0.00;0.00;;;;;;;8.45;72.46;99295.78;7346143;19;20388;-60
2022/12/20 07:54:57;;;;;;;0.00;0.00;;;;;;;8.45;72.19;99294.94;7362060;19;20640;-59
2022/12/20 07:57:28;;;;;;;0.00;0.00;;;;;;;8.43;72.48;99296.75;7367450;19;20018;-59
2022/12/20 07:59:56;;;;;;;0.00;0.00;;;;;;;8.41;72.15;99309.78;7365440;19;20006;-60
2022/12/20 08:02:33;;;;;;;0.00;0.00;;;;;;;8.42;72.32;99302.88;7365447;19;20010;-60
2022/12/20 08:04:59;;;;;;;0.00;0.00;;;;;;;8.25;72.22;99280.84;7363087;19;20006;-60
2022/12/20 08:07:27;;;;;;;0.10;0.10;;;;;;;8.37;72.06;99302.19;7355785;19;20018;-60
2022/12/20 08:09:53;;;;;;;0.10;0.10;;;;;;;8.35;72.13;99310.00;7362392;19;20006;-60
2022/12/20 08:12:20;;;;;;;0.10;0.10;;;;;;;8.35;72.28;99312.59;7363859;19;22525;-60
2022/12/20 08:14:46;;;;;;;0.00;0.00;;;;;;;8.12;72.21;99291.78;7364032;19;20017;-59
2022/12/20 08:17:11;;;;;;;0.00;0.00;;;;;;;8.29;72.19;99331.88;7366275;19;20006;-59
2022/12/20 08:19:37;;;;;;;0.03;0.03;;;;;;;8.29;72.84;99329.28;7363103;19;20768;-59
2022/12/20 08:22:03;;;;;;;0.00;0.00;;;;;;;8.26;72.63;99337.19;7366571;19;20033;-59
2022/12/20 08:24:28;;;;;;;0.10;0.10;;;;;;;8.25;72.21;99340.69;7360942;19;20038;-59
2022/12/20 08:26:54;;;;;;;0.00;0.00;;;;;;;8.24;72.67;99338.97;7360242;19;22321;-59
2022/12/20 08:29:20;;;;;;;0.00;0.00;;;;;;;8.23;72.53;99341.66;7362252;19;21159;-59
2022/12/20 08:31:45;;;;;;;0.05;0.05;;;;;;;8.20;72.32;99347.78;7364862;19;20010;-59
2022/12/20 08:34:10;;;;;;;0.10;0.10;;;;;;;8.20;72.83;99346.94;7358494;19;20609;-59
2022/12/20 08:36:36;;;;;;;0.00;0.00;;;;;;;8.19;72.34;99355.66;7363976;19;20006;-59
2022/12/20 08:39:03;;;;;;;0.10;0.10;;;;;;;8.09;72.77;99338.66;7362299;19;20038;-60
2022/12/20 08:41:29;;;;;;;0.00;0.00;;;;;;;8.16;72.67;99345.34;7361776;19;20061;-59
2022/12/20 08:43:55;;;;;;;0.00;0.00;;;;;;;8.16;72.63;99355.75;7365548;19;20019;-60
2022/12/20 08:46:20;;;;;;;0.00;0.00;;;;;;;8.17;72.59;99347.06;7360478;19;20105;-58
2022/12/20 08:48:45;;;;;;;0.00;0.00;;;;;;;8.16;72.70;99348.81;7364800;19;20715;-60
2022/12/20 08:51:11;;;;;;;0.00;0.00;;;;;;;8.16;72.27;99360.94;7365386;19;20026;-58
2022/12/20 08:53:37;;;;;;;0.00;0.00;;;;;;;8.16;72.32;99361.81;7362085;19;20015;-59
2022/12/20 08:56:09;;;;;;;0.00;0.00;;;;;;;8.19;72.60;99371.25;7361090;19;20051;-59
2022/12/20 08:58:35;;;;;;;0.10;0.10;;;;;;;8.17;72.18;99365.28;7362384;19;20010;-59
2022/12/20 09:01:03;;;;;;;0.10;0.10;;;;;;;8.17;71.93;99373.06;7364048;19;20031;-60
2022/12/20 09:03:30;;;;;;;0.00;0.00;;;;;;;8.15;72.00;99374.84;7362101;19;20031;-60
2022/12/20 09:05:56;;;;;;;0.10;0.10;;;;;;;8.01;71.93;99358.00;7361061;19;21005;-60
2022/12/20 09:08:22;;;;;;;0.10;0.10;;;;;;;8.14;71.78;99375.75;7361286;19;20040;-59
2022/12/20 09:10:47;;;;;;;0.00;0.00;;;;;;;8.12;71.66;99370.63;7364527;19;20529;-59
2022/12/20 09:13:13;;;;;;;0.00;0.00;;;;;;;8.13;72.66;99387.91;7361592;19;20010;-59
2022/12/20 09:15:38;;;;;;;0.00;0.00;;;;;;;8.12;71.93;99380.19;7355489;19;20002;-59
2022/12/20 09:18:04;;;;;;;0.00;0.00;;;;;;;8.11;71.84;99389.72;7355468;19;20012;-59
2022/12/20 09:20:30;;;;;;;0.05;0.05;;;;;;;8.11;72.38;99378.44;7360073;19;20007;-59
2022/12/20 09:22:58;;;;;;;0.10;0.10;;;;;;;8.11;71.84;99383.66;7359180;19;20002;-59
2022/12/20 09:25:23;;;;;;;0.08;0.08;;;;;;;8.11;72.16;99378.44;7362862;19;20018;-60
2022/12/20 09:27:49;;;;;;;0.03;0.03;;;;;;;8.10;72.06;99387.16;7357598;19;20010;-59
2022/12/20 09:30:15;;;;;;;0.00;0.00;;;;;;;8.08;71.87;99389.81;7359913;19;20035;-59
2022/12/20 09:32:40;;;;;;;0.05;0.05;;;;;;;7.97;71.60;99365.94;7360810;19;20014;-60
2022/12/20 09:35:06;;;;;;;0.00;0.00;;;;;;;8.10;71.14;99397.56;7356736;19;20019;-59
2022/12/20 09:37:31;;;;;;;0.10;0.10;;;;;;;8.11;71.76;99400.13;7361022;19;20466;-58
2022/12/20 09:39:57;;;;;;;0.10;0.10;;;;;;;8.11;71.15;99394.94;7362258;19;20031;-59
2022/12/20 09:42:26;;;;;;;0.10;0.10;;;;;;;8.12;70.76;99399.22;7359437;19;20013;-58
2022/12/20 09:44:53;;;;;;;0.00;0.00;;;;;;;8.03;71.35;99392.56;7358652;19;20025;-60
2022/12/20 09:47:22;;;;;;;0.10;0.10;;;;;;;8.15;71.01;99409.50;7359067;19;20026;-60
2022/12/20 09:49:52;;;;;;;0.10;0.10;;;;;;;8.18;71.12;99416.38;7359069;19;20569;-59
2022/12/20 09:52:46;;;;;;;0.00;0.00;;;;;;;8.21;71.73;99417.13;7359217;19;20066;-59
2022/12/20 09:55:17;;;;;;;0.03;0.03;;;;;;;8.25;71.48;99412.66;7260585;19;2004254;-60
2022/12/20 09:57:55;;;;;;;0.10;0.10;;;;;;;8.30;72.48;99421.16;7359230;19;20777;-58
2022/12/20 10:00:20;;;;;;;0.10;0.10;;;;;;;8.29;70.83;99417.69;7359367;19;20014;-59
2022/12/20 10:02:48;;;;;;;0.00;0.00;;;;;;;8.34;70.50;99427.94;7343389;19;20019;-59
2022/12/20 10:05:31;;;;;;;0.00;0.00;;;;;;;8.41;71.22;99432.06;7357795;19;20019;-60
2022/12/20 10:08:14;;;;;;;0.00;0.00;;;;;;;8.47;71.46;99434.47;7358123;19;20045;-59
2022/12/20 10:10:53;;;;;;;0.00;0.00;;;;;;;8.52;71.05;99435.16;7358315;19;20021;-59
2022/12/20 10:13:27;;;;;;;0.00;0.00;;;;;;;8.60;71.67;99436.63;7359444;19;20034;-59
2022/12/20 10:16:25;;;;;;;0.00;0.00;;;;;;;8.70;72.23;99451.03;7358114;19;20046;-60
2022/12/20 10:19:10;;;;;;;0.10;0.10;;;;;;;8.80;71.31;99447.19;7260232;19;2004306;-59
2022/12/20 10:21:53;;;;;;;0.10;0.10;;;;;;;8.95;71.96;99441.44;7361234;19;20129;-59
2022/12/20 10:24:24;;;;;;;0.00;0.00;;;;;;;9.07;71.12;99456.63;7358714;19;20017;-59
2022/12/20 10:26:50;;;;;;;0.10;0.10;;;;;;;9.24;71.28;99452.56;7360790;19;20002;-60
2022/12/20 10:29:16;;;;;;;0.03;0.03;;;;;;;9.42;71.88;99451.84;7358955;19;22426;-59
2022/12/20 10:31:41;;;;;;;0.00;0.00;;;;;;;9.60;71.28;99450.31;7345861;19;20010;-59
2022/12/20 10:34:07;;;;;;;0.10;0.10;;;;;;;9.78;70.45;99440.91;7366582;19;20006;-59
2022/12/20 10:36:35;;;;;;;0.00;0.00;;;;;;;9.96;70.93;99455.81;7368702;19;20017;-60
2022/12/20 10:39:08;;;;;;;0.10;0.10;;;;;;;10.08;72.34;99429.25;7363074;19;20025;-59
2022/12/20 10:41:40;;;;;;;0.00;0.00;;;;;;;10.33;69.81;99441.31;7367846;19;20108;-59
2022/12/20 10:44:24;;;;;;;0.00;0.00;;;;;;;10.49;70.96;99452.81;7362633;19;20015;-60
2022/12/20 10:46:53;;;;;;;0.00;0.00;;;;;;;10.57;66.84;99455.09;7363981;19;20971;-59
2022/12/20 10:49:35;;;;;;;0.10;0.10;;;;;;;10.72;69.43;99464.03;7366175;19;20006;-60
2022/12/20 10:52:07;;;;;;;0.00;0.00;;;;;;;10.83;66.74;99461.78;7366008;19;20013;-60
2022/12/20 10:54:38;;;;;;;0.08;0.08;;;;;;;10.83;65.64;99448.75;7363226;19;20454;-59
2022/12/20 10:57:25;;;;;;;0.10;0.10;;;;;;;11.01;67.53;99461.00;7363602;19;20711;-60
2022/12/20 10:59:56;;;;;;;0.05;0.05;;;;;;;11.00;65.26;99464.53;7363989;19;20014;-59
2022/12/20 11:02:33;;;;;;;0.00;0.00;;;;;;;11.10;66.45;99471.06;7366387;19;20011;-59
2022/12/20 11:05:14;;;;;;;0.08;0.08;;;;;;;11.11;65.27;99458.84;7365438;19;20011;-59
2022/12/20 11:07:59;;;;;;;0.00;0.00;;;;;;;11.14;65.74;99462.13;7368302;19;20010;-58
2022/12/20 11:10:27;;;;;;;0.05;0.05;;;;;;;11.17;64.69;99450.72;7366063;19;20014;-60
2022/12/20 11:12:58;;;;;;;0.00;0.00;;;;;;;11.26;64.64;99457.28;7365479;19;20011;-59
2022/12/20 11:15:26;;;;;;;0.00;0.00;;;;;;;11.31;63.10;99452.72;7367003;19;20556;-60
2022/12/20 11:18:02;;;;;;;0.10;0.10;;;;;;;11.39;62.77;99461.03;7365433;19;20867;-59
2022/12/20 11:20:41;;;;;;;0.00;0.00;;;;;;;11.57;63.11;99456.72;7367241;19;20011;-60
2022/12/20 11:23:19;;;;;;;0.05;0.05;;;;;;;11.69;64.46;99454.38;7366233;19;20010;-60
2022/12/20 11:25:47;;;;;;;;;;;;;;;11.88;64.96;99440.47;7366383;19;20077;-60
2022/12/20 11:28:41;;;;;;;0.00;0.00;;;;;;;12.02;63.89;99452.88;7363406;19;19933;-59
2022/12/20 11:31:15;;;;;;;0.00;0.00;;;;;;;12.10;62.20;99435.88;7262609;19;2004331;-59
2022/12/20 11:34:08;;;;;;;0.00;0.00;;;;;;;12.19;63.13;99443.28;7366162;19;20542;-59
2022/12/20 11:36:48;;;;;;;0.00;0.00;;;;;;;12.31;62.31;99439.19;7262948;19;2004342;-58
2022/12/20 11:39:28;;;;;;;0.00;0.00;;;;;;;12.46;60.82;99437.56;7364155;19;20469;-59
2022/12/20 11:41:57;;;;;;;0.10;0.10;;;;;;;12.50;57.88;99440.91;7358945;19;20025;-60
2022/12/20 11:44:48;;;;;;;0.00;0.00;;;;;;;12.65;61.77;99440.13;7365334;19;20982;-60
2022/12/20 11:47:16;;;;;;;0.00;0.00;;;;;;;12.73;59.08;99444.03;7366038;19;20018;-60
2022/12/20 11:49:41;;;;;;;0.10;0.10;;;;;;;12.80;58.18;99430.63;7365261;19;20060;-59
2022/12/20 11:52:15;;;;;;;0.00;0.00;;;;;;;12.92;58.70;99432.59;7363458;19;20085;-60
2022/12/20 11:54:51;;;;;;;0.10;0.10;;;;;;;12.85;56.10;99411.09;7364325;19;20107;-60
2022/12/20 11:57:25;;;;;;;0.00;0.00;;;;;;;13.00;57.24;99430.41;7365140;19;20046;-60